sensor_id;sensor_type;location;lat;lon;timestamp;P1;durP1;ratioP1;P2;durP2;ratioP2
69706;SDS011;56975;55.726;37.566;2023-08-01T00:00:00;42.7;;;14.2;;
69706;SDS011;56975;55.726;37.566;2023-08-01T00:05:00;33.9;;;14.3;;
69706;SDS011;56975;55.726;37.566;2023-08-01T00:10:00;32.6;;;16.1;;
69706;SDS011;56975;55.726;37.566;2023-08-01T00:15:00;28.3;;;12.4;;
69706;SDS011;56975;55.726;37.566;2023-08-01T00:20:00;25.2;;;11.8;;
69706;SDS011;56975;55.726;37.566;2023-08-01T00:25:00;32.6;;;12.7;;
69706;SDS011;56975;55.726;37.566;2023-08-01T00:30:00;34.5;;;12.9;;
69706;SDS011;56975;55.726;37.566;2023-08-01T00:35:00;26.5;;;12.5;;
69706;SDS011;56975;55.726;37.566;2023-08-01T00:40:00;32.0;;;13.9;;
69706;SDS011;56975;55.726;37.566;2023-08-01T00:45:00;37.5;;;17.0;;
69706;SDS011;56975;55.726;37.566;2023-08-01T00:50:00;34.0;;;15.0;;
69706;SDS011;56975;55.726;37.566;2023-08-01T00:55:00;38.4;;;14.8;;
69706;SDS011;56975;55.726;37.566;2023-08-01T01:00:00;32.9;;;14.3;;
69706;SDS011;56975;55.726;37.566;2023-08-01T01:05:00;27.9;;;13.2;;
69706;SDS011;56975;55.726;37.566;2023-08-01T01:10:00;29.4;;;13.6;;
69706;SDS011;56975;55.726;37.566;2023-08-01T01:15:00;28.4;;;13.0;;
69706;SDS011;56975;55.726;37.566;2023-08-01T01:20:00;26.4;;;12.7;;
69706;SDS011;56975;55.726;37.566;2023-08-01T01:25:00;29.0;;;12.4;;
69706;SDS011;56975;55.726;37.566;2023-08-01T01:30:00;32.2;;;13.7;;
69706;SDS011;56975;55.726;37.566;2023-08-01T01:35:01;31.8;;;14.2;;
69706;SDS011;56975;55.726;37.566;2023-08-01T01:40:00;24.5;;;12.3;;
69706;SDS011;56975;55.726;37.566;2023-08-01T01:45:00;30.6;;;12.6;;
69706;SDS011;56975;55.726;37.566;2023-08-01T01:50:00;28.8;;;11.9;;
69706;SDS011;56975;55.726;37.566;2023-08-01T01:55:00;22.1;;;11.1;;
69706;SDS011;56975;55.726;37.566;2023-08-01T02:00:00;26.0;;;10.5;;
69706;SDS011;56975;55.726;37.566;2023-08-01T02:05:00;23.2;;;9.1;;
69706;SDS011;56975;55.726;37.566;2023-08-01T02:10:00;18.9;;;9.7;;
69706;SDS011;56975;55.726;37.566;2023-08-01T02:15:00;23.9;;;10.1;;
69706;SDS011;56975;55.726;37.566;2023-08-01T02:20:00;20.6;;;10.4;;
69706;SDS011;56975;55.726;37.566;2023-08-01T02:25:00;21.8;;;9.8;;
69706;SDS011;56975;55.726;37.566;2023-08-01T02:30:00;25.1;;;9.9;;
69706;SDS011;56975;55.726;37.566;2023-08-01T02:35:00;18.8;;;10.0;;
69706;SDS011;56975;55.726;37.566;2023-08-01T02:40:01;16.7;;;9.2;;
69706;SDS011;56975;55.726;37.566;2023-08-01T02:45:00;23.5;;;9.5;;
69706;SDS011;56975;55.726;37.566;2023-08-01T02:50:00;17.5;;;9.1;;
69706;SDS011;56975;55.726;37.566;2023-08-01T02:55:00;20.2;;;9.4;;
69706;SDS011;56975;55.726;37.566;2023-08-01T03:00:00;17.7;;;8.5;;
69706;SDS011;56975;55.726;37.566;2023-08-01T03:05:00;20.7;;;9.3;;
69706;SDS011;56975;55.726;37.566;2023-08-01T03:10:00;19.3;;;9.7;;
69706;SDS011;56975;55.726;37.566;2023-08-01T03:15:00;20.2;;;10.0;;
69706;SDS011;56975;55.726;37.566;2023-08-01T03:20:00;18.9;;;9.5;;
69706;SDS011;56975;55.726;37.566;2023-08-01T03:25:00;18.9;;;9.5;;
69706;SDS011;56975;55.726;37.566;2023-08-01T03:30:00;24.4;;;10.7;;
69706;SDS011;56975;55.726;37.566;2023-08-01T03:35:00;21.3;;;10.9;;
69706;SDS011;56975;55.726;37.566;2023-08-01T03:40:00;20.7;;;10.5;;
69706;SDS011;56975;55.726;37.566;2023-08-01T03:45:00;17.3;;;9.8;;
69706;SDS011;56975;55.726;37.566;2023-08-01T03:50:00;19.0;;;10.0;;
69706;SDS011;56975;55.726;37.566;2023-08-01T03:55:00;21.5;;;9.4;;
69706;SDS011;56975;55.726;37.566;2023-08-01T04:00:00;19.2;;;9.8;;
69706;SDS011;56975;55.726;37.566;2023-08-01T04:05:00;17.3;;;9.6;;
69706;SDS011;56975;55.726;37.566;2023-08-01T04:10:00;13.5;;;8.7;;
69706;SDS011;56975;55.726;37.566;2023-08-01T04:15:00;19.0;;;9.7;;
69706;SDS011;56975;55.726;37.566;2023-08-01T04:20:00;20.4;;;9.7;;
69706;SDS011;56975;55.726;37.566;2023-08-01T04:25:00;16.9;;;9.6;;
69706;SDS011;56975;55.726;37.566;2023-08-01T04:30:00;17.4;;;9.0;;
69706;SDS011;56975;55.726;37.566;2023-08-01T04:35:00;14.5;;;8.6;;
69706;SDS011;56975;55.726;37.566;2023-08-01T04:40:00;17.1;;;8.8;;
69706;SDS011;56975;55.726;37.566;2023-08-01T04:45:00;14.3;;;8.3;;
69706;SDS011;56975;55.726;37.566;2023-08-01T04:50:00;13.8;;;7.9;;
69706;SDS011;56975;55.726;37.566;2023-08-01T04:55:00;16.3;;;8.4;;
69706;SDS011;56975;55.726;37.566;2023-08-01T05:00:00;14.3;;;7.6;;
69706;SDS011;56975;55.726;37.566;2023-08-01T05:05:00;13.2;;;6.4;;
69706;SDS011;56975;55.726;37.566;2023-08-01T05:10:00;11.0;;;7.0;;
69706;SDS011;56975;55.726;37.566;2023-08-01T05:15:00;16.2;;;6.4;;
69706;SDS011;56975;55.726;37.566;2023-08-01T05:20:00;12.5;;;6.3;;
69706;SDS011;56975;55.726;37.566;2023-08-01T05:25:00;10.4;;;5.4;;
69706;SDS011;56975;55.726;37.566;2023-08-01T05:30:00;9.5;;;5.6;;
69706;SDS011;56975;55.726;37.566;2023-08-01T05:35:00;13.8;;;6.1;;
69706;SDS011;56975;55.726;37.566;2023-08-01T05:40:02;9.0;;;5.3;;
69706;SDS011;56975;55.726;37.566;2023-08-01T05:45:00;8.7;;;5.0;;
69706;SDS011;56975;55.726;37.566;2023-08-01T05:50:00;10.1;;;5.3;;
69706;SDS011;56975;55.726;37.566;2023-08-01T05:55:00;10.4;;;5.3;;
69706;SDS011;56975;55.726;37.566;2023-08-01T06:00:00;9.4;;;5.3;;
69706;SDS011;56975;55.726;37.566;2023-08-01T06:05:00;15.3;;;8.1;;
69706;SDS011;56975;55.726;37.566;2023-08-01T06:10:00;12.1;;;4.7;;
69706;SDS011;56975;55.726;37.566;2023-08-01T06:15:00;8.3;;;3.8;;
69706;SDS011;56975;55.726;37.566;2023-08-01T06:20:00;8.9;;;4.5;;
69706;SDS011;56975;55.726;37.566;2023-08-01T06:25:00;10.9;;;4.0;;
69706;SDS011;56975;55.726;37.566;2023-08-01T06:30:00;10.2;;;4.3;;
69706;SDS011;56975;55.726;37.566;2023-08-01T06:35:00;6.4;;;4.1;;
69706;SDS011;56975;55.726;37.566;2023-08-01T06:40:00;9.6;;;3.9;;
69706;SDS011;56975;55.726;37.566;2023-08-01T06:45:00;7.0;;;4.1;;
69706;SDS011;56975;55.726;37.566;2023-08-01T06:50:00;10.0;;;5.3;;
69706;SDS011;56975;55.726;37.566;2023-08-01T06:55:00;7.5;;;3.9;;
69706;SDS011;56975;55.726;37.566;2023-08-01T07:00:00;10.8;;;3.3;;
69706;SDS011;56975;55.726;37.566;2023-08-01T07:05:00;6.4;;;3.7;;
69706;SDS011;56975;55.726;37.566;2023-08-01T07:10:00;6.2;;;3.6;;
69706;SDS011;56975;55.726;37.566;2023-08-01T07:15:00;7.3;;;3.9;;
69706;SDS011;56975;55.726;37.566;2023-08-01T07:20:00;5.7;;;3.4;;
69706;SDS011;56975;55.726;37.566;2023-08-01T07:25:00;6.3;;;3.8;;
69706;SDS011;56975;55.726;37.566;2023-08-01T07:30:00;6.6;;;3.3;;
69706;SDS011;56975;55.726;37.566;2023-08-01T07:35:00;10.3;;;4.8;;
69706;SDS011;56975;55.726;37.566;2023-08-01T07:40:00;6.7;;;3.4;;
69706;SDS011;56975;55.726;37.566;2023-08-01T07:45:00;6.8;;;3.7;;
69706;SDS011;56975;55.726;37.566;2023-08-01T07:50:00;6.3;;;3.7;;
69706;SDS011;56975;55.726;37.566;2023-08-01T07:55:00;7.6;;;4.1;;
69706;SDS011;56975;55.726;37.566;2023-08-01T08:00:00;12.6;;;8.1;;
69706;SDS011;56975;55.726;37.566;2023-08-01T08:05:00;8.9;;;3.4;;
69706;SDS011;56975;55.726;37.566;2023-08-01T08:10:00;8.8;;;3.8;;
69706;SDS011;56975;55.726;37.566;2023-08-01T08:15:00;5.9;;;3.8;;
69706;SDS011;56975;55.726;37.566;2023-08-01T08:20:00;9.5;;;4.2;;
69706;SDS011;56975;55.726;37.566;2023-08-01T08:25:00;7.4;;;4.2;;
69706;SDS011;56975;55.726;37.566;2023-08-01T08:30:00;8.4;;;3.6;;
69706;SDS011;56975;55.726;37.566;2023-08-01T08:35:00;10.2;;;4.1;;
69706;SDS011;56975;55.726;37.566;2023-08-01T08:40:00;10.1;;;6.5;;
69706;SDS011;56975;55.726;37.566;2023-08-01T08:45:00;11.7;;;6.9;;
69706;SDS011;56975;55.726;37.566;2023-08-01T08:50:00;5.9;;;4.3;;
69706;SDS011;56975;55.726;37.566;2023-08-01T08:55:00;7.1;;;4.1;;
69706;SDS011;56975;55.726;37.566;2023-08-01T09:00:00;8.1;;;4.0;;
69706;SDS011;56975;55.726;37.566;2023-08-01T09:05:00;10.6;;;4.2;;
69706;SDS011;56975;55.726;37.566;2023-08-01T09:10:00;7.0;;;4.5;;
69706;SDS011;56975;55.726;37.566;2023-08-01T09:15:00;6.6;;;3.7;;
69706;SDS011;56975;55.726;37.566;2023-08-01T09:20:05;6.6;;;3.9;;
69706;SDS011;56975;55.726;37.566;2023-08-01T09:25:00;7.2;;;3.5;;
69706;SDS011;56975;55.726;37.566;2023-08-01T09:30:04;7.2;;;3.2;;
69706;SDS011;56975;55.726;37.566;2023-08-01T09:35:00;5.6;;;3.2;;
69706;SDS011;56975;55.726;37.566;2023-08-01T09:40:00;8.8;;;5.6;;
69706;SDS011;56975;55.726;37.566;2023-08-01T09:45:00;7.1;;;3.6;;
69706;SDS011;56975;55.726;37.566;2023-08-01T09:50:00;5.7;;;3.2;;
69706;SDS011;56975;55.726;37.566;2023-08-01T09:55:00;9.6;;;3.7;;
69706;SDS011;56975;55.726;37.566;2023-08-01T10:00:00;7.4;;;3.2;;
69706;SDS011;56975;55.726;37.566;2023-08-01T10:05:00;4.9;;;3.0;;
69706;SDS011;56975;55.726;37.566;2023-08-01T10:10:00;5.1;;;3.2;;
69706;SDS011;56975;55.726;37.566;2023-08-01T10:15:00;7.8;;;3.4;;
69706;SDS011;56975;55.726;37.566;2023-08-01T10:20:00;8.0;;;3.5;;
69706;SDS011;56975;55.726;37.566;2023-08-01T10:25:00;9.0;;;3.8;;
69706;SDS011;56975;55.726;37.566;2023-08-01T10:30:00;9.1;;;3.7;;
69706;SDS011;56975;55.726;37.566;2023-08-01T10:35:00;5.5;;;2.7;;
69706;SDS011;56975;55.726;37.566;2023-08-01T10:40:00;5.5;;;3.0;;
69706;SDS011;56975;55.726;37.566;2023-08-01T10:45:00;9.7;;;3.5;;
69706;SDS011;56975;55.726;37.566;2023-08-01T10:50:00;5.7;;;3.2;;
69706;SDS011;56975;55.726;37.566;2023-08-01T10:55:00;8.0;;;3.6;;
69706;SDS011;56975;55.726;37.566;2023-08-01T11:00:00;4.0;;;3.1;;
69706;SDS011;56975;55.726;37.566;2023-08-01T11:05:01;6.5;;;3.0;;
69706;SDS011;56975;55.726;37.566;2023-08-01T11:10:02;8.7;;;3.5;;
69706;SDS011;56975;55.726;37.566;2023-08-01T11:15:00;7.9;;;3.4;;
69706;SDS011;56975;55.726;37.566;2023-08-01T11:20:00;4.9;;;3.2;;
69706;SDS011;56975;55.726;37.566;2023-08-01T11:25:00;4.1;;;2.8;;
69706;SDS011;56975;55.726;37.566;2023-08-01T11:30:00;6.9;;;2.9;;
69706;SDS011;56975;55.726;37.566;2023-08-01T11:35:00;5.3;;;3.1;;
69706;SDS011;56975;55.726;37.566;2023-08-01T11:40:00;8.5;;;3.2;;
69706;SDS011;56975;55.726;37.566;2023-08-01T11:50:00;5.7;;;3.3;;
69706;SDS011;56975;55.726;37.566;2023-08-01T11:55:00;6.4;;;3.5;;
69706;SDS011;56975;55.726;37.566;2023-08-01T12:00:00;6.4;;;3.4;;
69706;SDS011;56975;55.726;37.566;2023-08-01T12:05:00;9.7;;;4.0;;
69706;SDS011;56975;55.726;37.566;2023-08-01T12:10:00;8.6;;;3.7;;
69706;SDS011;56975;55.726;37.566;2023-08-01T12:15:00;5.8;;;3.9;;
69706;SDS011;56975;55.726;37.566;2023-08-01T12:20:00;8.7;;;4.4;;
69706;SDS011;56975;55.726;37.566;2023-08-01T12:25:00;7.4;;;3.9;;
69706;SDS011;56975;55.726;37.566;2023-08-01T12:30:00;8.4;;;4.3;;
69706;SDS011;56975;55.726;37.566;2023-08-01T12:35:00;8.8;;;4.4;;
69706;SDS011;56975;55.726;37.566;2023-08-01T12:40:00;7.8;;;3.8;;
69706;SDS011;56975;55.726;37.566;2023-08-01T12:45:00;9.1;;;3.9;;
69706;SDS011;56975;55.726;37.566;2023-08-01T12:50:00;6.9;;;3.5;;
69706;SDS011;56975;55.726;37.566;2023-08-01T12:55:00;10.6;;;3.8;;
69706;SDS011;56975;55.726;37.566;2023-08-01T13:00:00;7.7;;;3.9;;
69706;SDS011;56975;55.726;37.566;2023-08-01T13:05:00;10.8;;;4.4;;
69706;SDS011;56975;55.726;37.566;2023-08-01T13:10:00;10.2;;;4.3;;
69706;SDS011;56975;55.726;37.566;2023-08-01T13:15:00;9.0;;;4.0;;
69706;SDS011;56975;55.726;37.566;2023-08-01T13:20:00;10.8;;;4.4;;
69706;SDS011;56975;55.726;37.566;2023-08-01T13:25:00;10.8;;;4.4;;
69706;SDS011;56975;55.726;37.566;2023-08-01T13:30:00;11.5;;;4.1;;
69706;SDS011;56975;55.726;37.566;2023-08-01T13:35:00;7.9;;;4.2;;
69706;SDS011;56975;55.726;37.566;2023-08-01T13:40:00;11.2;;;4.3;;
69706;SDS011;56975;55.726;37.566;2023-08-01T13:45:00;11.7;;;4.4;;
69706;SDS011;56975;55.726;37.566;2023-08-01T13:50:00;9.3;;;4.4;;
69706;SDS011;56975;55.726;37.566;2023-08-01T13:55:00;10.1;;;4.7;;
69706;SDS011;56975;55.726;37.566;2023-08-01T14:00:00;7.4;;;3.9;;
69706;SDS011;56975;55.726;37.566;2023-08-01T14:05:00;11.7;;;4.0;;
69706;SDS011;56975;55.726;37.566;2023-08-01T14:10:00;9.3;;;4.3;;
69706;SDS011;56975;55.726;37.566;2023-08-01T14:15:00;8.6;;;4.4;;
69706;SDS011;56975;55.726;37.566;2023-08-01T14:20:00;10.3;;;4.0;;
69706;SDS011;56975;55.726;37.566;2023-08-01T14:25:00;9.4;;;4.7;;
69706;SDS011;56975;55.726;37.566;2023-08-01T14:30:01;12.8;;;5.0;;
69706;SDS011;56975;55.726;37.566;2023-08-01T14:35:00;7.2;;;4.5;;
69706;SDS011;56975;55.726;37.566;2023-08-01T14:40:00;5.9;;;3.8;;
69706;SDS011;56975;55.726;37.566;2023-08-01T14:45:00;9.6;;;4.0;;
69706;SDS011;56975;55.726;37.566;2023-08-01T14:50:00;10.1;;;4.7;;
69706;SDS011;56975;55.726;37.566;2023-08-01T14:55:00;12.6;;;6.1;;
69706;SDS011;56975;55.726;37.566;2023-08-01T15:00:00;10.6;;;4.3;;
69706;SDS011;56975;55.726;37.566;2023-08-01T15:05:00;8.4;;;4.2;;
69706;SDS011;56975;55.726;37.566;2023-08-01T15:10:00;8.1;;;4.2;;
69706;SDS011;56975;55.726;37.566;2023-08-01T15:15:00;9.0;;;4.7;;
69706;SDS011;56975;55.726;37.566;2023-08-01T15:20:00;11.0;;;4.6;;
69706;SDS011;56975;55.726;37.566;2023-08-01T15:25:00;8.3;;;3.9;;
69706;SDS011;56975;55.726;37.566;2023-08-01T15:30:00;9.6;;;4.4;;
69706;SDS011;56975;55.726;37.566;2023-08-01T15:35:00;10.9;;;4.4;;
69706;SDS011;56975;55.726;37.566;2023-08-01T15:40:00;9.5;;;4.6;;
69706;SDS011;56975;55.726;37.566;2023-08-01T15:45:00;7.5;;;4.3;;
69706;SDS011;56975;55.726;37.566;2023-08-01T15:50:00;11.1;;;4.9;;
69706;SDS011;56975;55.726;37.566;2023-08-01T15:55:00;12.0;;;4.9;;
69706;SDS011;56975;55.726;37.566;2023-08-01T16:00:00;10.0;;;4.6;;
69706;SDS011;56975;55.726;37.566;2023-08-01T16:05:00;7.5;;;4.1;;
69706;SDS011;56975;55.726;37.566;2023-08-01T16:10:00;8.4;;;4.4;;
69706;SDS011;56975;55.726;37.566;2023-08-01T16:15:00;10.5;;;4.9;;
69706;SDS011;56975;55.726;37.566;2023-08-01T16:20:00;7.2;;;4.3;;
69706;SDS011;56975;55.726;37.566;2023-08-01T16:25:00;7.9;;;4.4;;
69706;SDS011;56975;55.726;37.566;2023-08-01T16:30:00;8.7;;;4.6;;
69706;SDS011;56975;55.726;37.566;2023-08-01T16:35:00;8.5;;;4.4;;
69706;SDS011;56975;55.726;37.566;2023-08-01T16:40:00;9.5;;;4.6;;
69706;SDS011;56975;55.726;37.566;2023-08-01T16:45:00;8.7;;;4.1;;
69706;SDS011;56975;55.726;37.566;2023-08-01T16:50:00;10.2;;;4.9;;
69706;SDS011;56975;55.726;37.566;2023-08-01T16:55:00;10.3;;;4.8;;
69706;SDS011;56975;55.726;37.566;2023-08-01T17:00:00;11.5;;;5.0;;
69706;SDS011;56975;55.726;37.566;2023-08-01T17:05:00;15.2;;;4.8;;
69706;SDS011;56975;55.726;37.566;2023-08-01T17:10:00;12.7;;;5.1;;
69706;SDS011;56975;55.726;37.566;2023-08-01T17:15:00;8.5;;;4.9;;
69706;SDS011;56975;55.726;37.566;2023-08-01T17:20:00;14.2;;;5.4;;
69706;SDS011;56975;55.726;37.566;2023-08-01T17:25:00;10.6;;;4.8;;
69706;SDS011;56975;55.726;37.566;2023-08-01T17:30:00;9.2;;;4.6;;
69706;SDS011;56975;55.726;37.566;2023-08-01T17:35:00;9.6;;;4.5;;
69706;SDS011;56975;55.726;37.566;2023-08-01T17:40:00;15.4;;;5.2;;
69706;SDS011;56975;55.726;37.566;2023-08-01T17:45:00;9.4;;;4.5;;
69706;SDS011;56975;55.726;37.566;2023-08-01T17:50:00;8.3;;;4.7;;
69706;SDS011;56975;55.726;37.566;2023-08-01T17:55:00;7.5;;;4.3;;
69706;SDS011;56975;55.726;37.566;2023-08-01T18:00:00;8.4;;;4.3;;
69706;SDS011;56975;55.726;37.566;2023-08-01T18:05:00;9.4;;;4.5;;
69706;SDS011;56975;55.726;37.566;2023-08-01T18:10:00;8.0;;;4.5;;
69706;SDS011;56975;55.726;37.566;2023-08-01T18:15:00;7.9;;;4.7;;
69706;SDS011;56975;55.726;37.566;2023-08-01T18:20:00;7.8;;;4.6;;
69706;SDS011;56975;55.726;37.566;2023-08-01T18:25:00;8.1;;;4.7;;
69706;SDS011;56975;55.726;37.566;2023-08-01T18:30:00;13.4;;;6.4;;
69706;SDS011;56975;55.726;37.566;2023-08-01T18:35:00;12.9;;;5.5;;
69706;SDS011;56975;55.726;37.566;2023-08-01T18:40:00;8.1;;;5.4;;
69706;SDS011;56975;55.726;37.566;2023-08-01T18:45:00;12.5;;;5.8;;
69706;SDS011;56975;55.726;37.566;2023-08-01T18:50:00;11.1;;;6.1;;
69706;SDS011;56975;55.726;37.566;2023-08-01T18:55:00;14.5;;;6.3;;
69706;SDS011;56975;55.726;37.566;2023-08-01T19:00:00;13.1;;;6.5;;
69706;SDS011;56975;55.726;37.566;2023-08-01T19:05:03;13.7;;;6.4;;
69706;SDS011;56975;55.726;37.566;2023-08-01T19:10:00;11.1;;;6.3;;
69706;SDS011;56975;55.726;37.566;2023-08-01T19:15:00;11.3;;;6.6;;
69706;SDS011;56975;55.726;37.566;2023-08-01T19:20:00;10.6;;;6.7;;
69706;SDS011;56975;55.726;37.566;2023-08-01T19:25:00;10.9;;;7.0;;
69706;SDS011;56975;55.726;37.566;2023-08-01T19:30:01;15.9;;;6.5;;
69706;SDS011;56975;55.726;37.566;2023-08-01T19:35:00;11.8;;;6.8;;
69706;SDS011;56975;55.726;37.566;2023-08-01T19:40:00;11.8;;;6.8;;
69706;SDS011;56975;55.726;37.566;2023-08-01T19:45:00;13.6;;;8.3;;
69706;SDS011;56975;55.726;37.566;2023-08-01T19:50:00;13.4;;;7.2;;
69706;SDS011;56975;55.726;37.566;2023-08-01T19:55:00;14.6;;;7.4;;
69706;SDS011;56975;55.726;37.566;2023-08-01T20:00:00;15.9;;;7.6;;
69706;SDS011;56975;55.726;37.566;2023-08-01T20:05:00;17.1;;;7.6;;
69706;SDS011;56975;55.726;37.566;2023-08-01T20:10:00;14.8;;;7.6;;
69706;SDS011;56975;55.726;37.566;2023-08-01T20:15:00;13.6;;;7.7;;
69706;SDS011;56975;55.726;37.566;2023-08-01T20:20:00;15.2;;;7.8;;
69706;SDS011;56975;55.726;37.566;2023-08-01T20:25:00;11.6;;;7.2;;
69706;SDS011;56975;55.726;37.566;2023-08-01T20:30:00;13.7;;;7.5;;
69706;SDS011;56975;55.726;37.566;2023-08-01T20:35:01;13.4;;;7.5;;
69706;SDS011;56975;55.726;37.566;2023-08-01T20:40:01;13.7;;;8.5;;
69706;SDS011;56975;55.726;37.566;2023-08-01T20:45:00;13.3;;;7.6;;
69706;SDS011;56975;55.726;37.566;2023-08-01T20:50:00;13.3;;;8.0;;
69706;SDS011;56975;55.726;37.566;2023-08-01T20:55:00;14.8;;;8.6;;
69706;SDS011;56975;55.726;37.566;2023-08-01T21:00:00;21.3;;;14.6;;
69706;SDS011;56975;55.726;37.566;2023-08-01T21:05:00;12.6;;;9.0;;
69706;SDS011;56975;55.726;37.566;2023-08-01T21:10:00;14.9;;;9.1;;
69706;SDS011;56975;55.726;37.566;2023-08-01T21:15:00;16.2;;;9.1;;
69706;SDS011;56975;55.726;37.566;2023-08-01T21:20:00;13.8;;;9.0;;
69706;SDS011;56975;55.726;37.566;2023-08-01T21:25:00;16.7;;;8.8;;
69706;SDS011;56975;55.726;37.566;2023-08-01T21:30:00;20.4;;;11.3;;
69706;SDS011;56975;55.726;37.566;2023-08-01T21:35:00;18.1;;;10.9;;
69706;SDS011;56975;55.726;37.566;2023-08-01T21:40:00;16.5;;;9.6;;
69706;SDS011;56975;55.726;37.566;2023-08-01T21:45:00;16.3;;;9.8;;
69706;SDS011;56975;55.726;37.566;2023-08-01T21:50:00;15.3;;;9.5;;
69706;SDS011;56975;55.726;37.566;2023-08-01T21:55:00;21.9;;;10.6;;
69706;SDS011;56975;55.726;37.566;2023-08-01T22:00:00;17.2;;;10.4;;
69706;SDS011;56975;55.726;37.566;2023-08-01T22:05:00;18.6;;;10.8;;
69706;SDS011;56975;55.726;37.566;2023-08-01T22:10:00;26.2;;;11.1;;
69706;SDS011;56975;55.726;37.566;2023-08-01T22:15:00;19.8;;;11.2;;
69706;SDS011;56975;55.726;37.566;2023-08-01T22:20:00;21.9;;;12.7;;
69706;SDS011;56975;55.726;37.566;2023-08-01T22:25:00;29.1;;;12.3;;
69706;SDS011;56975;55.726;37.566;2023-08-01T22:30:00;26.2;;;12.7;;
69706;SDS011;56975;55.726;37.566;2023-08-01T22:35:00;24.6;;;12.8;;
69706;SDS011;56975;55.726;37.566;2023-08-01T22:40:01;24.7;;;12.3;;
69706;SDS011;56975;55.726;37.566;2023-08-01T22:45:00;28.5;;;13.4;;
69706;SDS011;56975;55.726;37.566;2023-08-01T22:50:00;24.7;;;13.0;;
69706;SDS011;56975;55.726;37.566;2023-08-01T22:55:00;27.8;;;13.3;;
69706;SDS011;56975;55.726;37.566;2023-08-01T23:00:00;22.0;;;12.7;;
69706;SDS011;56975;55.726;37.566;2023-08-01T23:05:00;26.3;;;13.4;;
69706;SDS011;56975;55.726;37.566;2023-08-01T23:10:01;25.7;;;12.5;;
69706;SDS011;56975;55.726;37.566;2023-08-01T23:15:00;21.2;;;12.5;;
69706;SDS011;56975;55.726;37.566;2023-08-01T23:20:00;25.8;;;12.9;;
69706;SDS011;56975;55.726;37.566;2023-08-01T23:25:00;27.3;;;13.1;;
69706;SDS011;56975;55.726;37.566;2023-08-01T23:30:00;27.7;;;13.0;;
69706;SDS011;56975;55.726;37.566;2023-08-01T23:35:00;23.5;;;11.9;;
69706;SDS011;56975;55.726;37.566;2023-08-01T23:40:00;25.9;;;13.1;;
69706;SDS011;56975;55.726;37.566;2023-08-01T23:45:00;27.2;;;12.9;;
69706;SDS011;56975;55.726;37.566;2023-08-01T23:50:00;26.2;;;14.7;;
69706;SDS011;56975;55.726;37.566;2023-08-01T23:55:00;22.2;;;14.6;;
